createdAt,value
2024-01-30T00:03:12.170Z,-0.20
2024-01-30T00:07:14.980Z,0.05
2024-01-30T00:11:18.069Z,-0.12
2024-01-30T00:15:20.718Z,-0.43
2024-01-30T00:19:24.989Z,-0.03
2024-01-30T00:23:27.787Z,0.00
2024-01-30T00:27:30.497Z,0.09
2024-01-30T00:31:33.328Z,-0.37
2024-01-30T00:35:37.736Z,-0.43
2024-01-30T00:39:40.351Z,-0.24
2024-01-30T00:43:43.124Z,-0.19
2024-01-30T00:47:46.084Z,-0.02
2024-01-30T00:51:50.131Z,-0.09
2024-01-30T00:55:52.851Z,-0.45
2024-01-30T00:59:55.866Z,-0.34
2024-01-30T01:03:59.451Z,-0.30
2024-01-30T01:08:03.586Z,-0.17
2024-01-30T01:12:07.033Z,-0.34
2024-01-30T01:16:09.774Z,-0.57
2024-01-30T01:20:12.669Z,-0.58
2024-01-30T01:24:16.907Z,-0.47
2024-01-30T01:28:19.893Z,-0.35
2024-01-30T01:32:22.741Z,-0.52
2024-01-30T01:36:25.389Z,-0.52
2024-01-30T01:40:29.877Z,-0.49
2024-01-30T01:44:32.449Z,-0.50
2024-01-30T01:48:35.366Z,-0.63
2024-01-30T01:52:38.464Z,-0.50
2024-01-30T01:56:43.120Z,-0.57
2024-01-30T02:00:45.934Z,-0.46
2024-01-30T02:04:48.741Z,-0.78
2024-01-30T02:08:51.425Z,-0.62
2024-01-30T02:12:55.530Z,-0.59
2024-01-30T02:16:58.232Z,-0.64
2024-01-30T02:21:03.099Z,-0.87
2024-01-30T02:25:08.170Z,-0.78
2024-01-30T02:29:10.921Z,-0.86
2024-01-30T02:33:13.997Z,-0.88
2024-01-30T02:37:16.889Z,-0.69
2024-01-30T02:41:20.989Z,-0.84
2024-01-30T02:45:23.719Z,-0.73
2024-01-30T02:49:26.471Z,-0.81
2024-01-30T02:53:29.286Z,-0.82
2024-01-30T02:57:33.374Z,-0.90
2024-01-30T03:01:44.759Z,-0.92
2024-01-30T03:05:47.684Z,-0.63
2024-01-30T03:09:50.445Z,-0.92
2024-01-30T03:13:54.545Z,-1.04
2024-01-30T03:17:57.294Z,-0.82
2024-01-30T03:22:00.054Z,-1.26
2024-01-30T03:26:02.966Z,-1.03
2024-01-30T03:30:08.909Z,-0.96
2024-01-30T03:34:11.819Z,-1.01
2024-01-30T03:38:14.573Z,-1.20
2024-01-30T03:42:17.260Z,-1.07
2024-01-30T03:46:21.401Z,-1.00
2024-01-30T03:50:24.131Z,-0.86
2024-01-30T03:54:26.925Z,-1.01
2024-01-30T03:58:29.749Z,-0.82
2024-01-30T04:02:33.889Z,-1.19
2024-01-30T04:06:36.752Z,-0.97
2024-01-30T04:10:39.445Z,-0.89
2024-01-30T04:14:42.144Z,-0.98
2024-01-30T04:18:46.247Z,-1.20
2024-01-30T04:22:49.230Z,-1.15
2024-01-30T04:26:51.937Z,-1.08
2024-01-30T04:30:54.994Z,-1.21
2024-01-30T04:34:59.150Z,-1.33
2024-01-30T04:39:01.900Z,-1.09
2024-01-30T04:43:04.834Z,-1.06
2024-01-30T04:47:09.975Z,-0.95
2024-01-30T04:51:14.130Z,-1.01
2024-01-30T04:55:18.560Z,-1.13
2024-01-30T04:59:22.603Z,-1.07
2024-01-30T05:03:25.405Z,-1.33
2024-01-30T05:07:29.651Z,-1.27
2024-01-30T05:11:32.390Z,-1.21
2024-01-30T05:15:35.124Z,-1.29
2024-01-30T05:19:38.192Z,-1.20
2024-01-30T05:23:42.877Z,-1.28
2024-01-30T05:27:45.599Z,-1.41
2024-01-30T05:31:48.384Z,-1.14
2024-01-30T05:35:51.091Z,-1.25
2024-01-30T05:39:55.296Z,-1.37
2024-01-30T05:43:58.006Z,-1.24
2024-01-30T05:48:00.817Z,-1.27
2024-01-30T05:52:04.546Z,-1.31
2024-01-30T05:56:09.750Z,-1.74
2024-01-30T06:00:13.148Z,-1.55
2024-01-30T06:04:16.087Z,-1.38
2024-01-30T06:08:19.586Z,-1.27
2024-01-30T06:12:23.748Z,-1.51
2024-01-30T06:16:30.473Z,-1.37
2024-01-30T06:20:33.235Z,-1.49
2024-01-30T06:24:36.095Z,-1.49
2024-01-30T06:28:40.234Z,-1.41
2024-01-30T06:32:43.084Z,-1.27
2024-01-30T06:36:45.876Z,-1.69
2024-01-30T06:40:48.620Z,-1.49
2024-01-30T06:44:52.660Z,-1.33
2024-01-30T06:48:55.396Z,-1.36
2024-01-30T06:52:58.131Z,-1.25
2024-01-30T06:57:00.959Z,-2.06
2024-01-30T07:01:05.305Z,-1.19
2024-01-30T07:05:08.785Z,-1.13
2024-01-30T07:09:11.585Z,-1.14
2024-01-30T07:13:14.496Z,-1.02
2024-01-30T07:17:18.583Z,-0.83
2024-01-30T07:21:22.966Z,-0.82
2024-01-30T07:25:27.954Z,-0.88
2024-01-30T07:29:31.018Z,-0.78
2024-01-30T07:33:35.304Z,-0.70
2024-01-30T07:37:38.085Z,-0.72
2024-01-30T07:41:40.909Z,-0.78
2024-01-30T07:45:43.824Z,-0.81
2024-01-30T07:49:49.180Z,-0.66
2024-01-30T07:53:51.990Z,-1.10
2024-01-30T07:57:54.859Z,-0.43
2024-01-30T08:01:57.732Z,-0.42
2024-01-30T08:06:01.866Z,-0.32
2024-01-30T08:10:05.160Z,-0.18
2024-01-30T08:14:08.019Z,-0.06
2024-01-30T08:18:11.037Z,0.02
2024-01-30T08:22:15.721Z,0.26
2024-01-30T08:26:18.535Z,0.20
2024-01-30T08:30:21.963Z,0.28
2024-01-30T08:34:24.787Z,0.28
2024-01-30T08:38:30.346Z,0.28
2024-01-30T08:42:33.076Z,0.37
2024-01-30T08:46:36.125Z,0.53
2024-01-30T08:50:38.949Z,0.72
2024-01-30T08:54:43.004Z,0.89
2024-01-30T08:58:45.801Z,1.22
2024-01-30T09:02:48.565Z,1.17
2024-01-30T09:06:51.446Z,1.14
2024-01-30T09:10:56.252Z,1.40
2024-01-30T09:14:59.175Z,1.46
2024-01-30T09:19:02.024Z,1.57
2024-01-30T09:23:04.998Z,1.72
2024-01-30T09:27:09.181Z,1.86
2024-01-30T09:31:12.515Z,1.87
2024-01-30T09:35:15.757Z,2.07
2024-01-30T09:39:20.934Z,2.21
2024-01-30T09:43:27.563Z,2.24
2024-01-30T09:47:30.699Z,2.32
2024-01-30T09:51:33.725Z,2.05
2024-01-30T09:55:37.551Z,2.43
2024-01-30T09:59:43.715Z,2.16
2024-01-30T10:03:46.884Z,2.88
2024-01-30T10:07:55.304Z,3.20
2024-01-30T10:11:58.328Z,3.18
2024-01-30T10:16:04.196Z,3.45
2024-01-30T10:20:07.974Z,3.55
2024-01-30T10:24:13.996Z,3.82
2024-01-30T10:28:16.749Z,3.95
2024-01-30T10:32:22.259Z,4.26
2024-01-30T10:36:30.425Z,4.28
2024-01-30T10:40:33.871Z,4.76
2024-01-30T10:44:40.289Z,4.88
2024-01-30T10:48:46.683Z,4.79
2024-01-30T10:52:49.778Z,5.00
2024-01-30T10:56:53.269Z,5.45
2024-01-30T11:00:57.305Z,5.09
2024-01-30T11:05:17.668Z,4.79
2024-01-30T11:09:20.773Z,5.39
2024-01-30T11:13:28.958Z,5.31
2024-01-30T11:17:45.848Z,5.11
2024-01-30T11:26:12.424Z,6.29
2024-01-30T11:30:25.649Z,5.92
2024-01-30T11:34:35.655Z,6.47
2024-01-30T11:38:42.733Z,6.66
2024-01-30T11:42:46.723Z,6.34
2024-01-30T11:46:49.549Z,6.99
2024-01-30T11:50:52.933Z,7.13
2024-01-30T11:55:01.199Z,7.22
2024-01-30T11:59:12.285Z,7.30
2024-01-30T12:03:15.146Z,7.52
2024-01-30T12:07:18.218Z,6.96
2024-01-30T12:11:22.510Z,6.92
2024-01-30T12:15:27.192Z,7.41
2024-01-30T12:19:30.244Z,7.95
2024-01-30T12:23:33.192Z,7.93
2024-01-30T12:27:47.123Z,8.20
2024-01-30T12:31:51.058Z,8.14
2024-01-30T12:36:01.889Z,7.56
2024-01-30T12:40:08.536Z,8.23
2024-01-30T12:44:27.692Z,8.24
2024-01-30T12:48:31.287Z,7.92
2024-01-30T12:52:34.117Z,8.10
2024-01-30T12:56:37.111Z,7.86
2024-01-30T13:00:56.242Z,8.11
2024-01-30T13:05:09.531Z,7.56
2024-01-30T13:09:14.895Z,7.92
2024-01-30T13:13:37.612Z,8.17
2024-01-30T13:17:50.941Z,7.87
2024-01-30T13:21:54.919Z,7.78
2024-01-30T13:26:08.507Z,7.54
2024-01-30T13:30:11.822Z,8.04
2024-01-30T13:34:17.626Z,8.11
2024-01-30T13:38:20.732Z,7.70
2024-01-30T13:42:24.134Z,7.95
2024-01-30T13:46:27.043Z,8.31
2024-01-30T13:50:54.196Z,7.79
2024-01-30T13:54:58.105Z,7.09
2024-01-30T13:59:02.752Z,7.84
2024-01-30T14:03:08.283Z,7.95
2024-01-30T14:07:28.068Z,7.74
2024-01-30T14:11:30.924Z,8.18
2024-01-30T14:15:34.922Z,8.36
2024-01-30T14:19:38.465Z,8.27
2024-01-30T14:23:54.824Z,7.82
2024-01-30T14:27:57.773Z,8.45
2024-01-30T14:32:00.671Z,8.26
2024-01-30T14:36:03.555Z,8.15
2024-01-30T14:40:09.552Z,8.08
2024-01-30T14:44:12.464Z,8.15
2024-01-30T14:48:15.722Z,8.57
2024-01-30T14:52:18.837Z,8.12
2024-01-30T14:56:23.338Z,8.45
2024-01-30T15:00:32.304Z,8.19
2024-01-30T15:04:36.459Z,8.33
2024-01-30T15:08:51.614Z,8.00
2024-01-30T15:13:15.662Z,7.17
2024-01-30T15:17:22.696Z,7.87
2024-01-30T15:21:29.275Z,8.16
2024-01-30T15:25:32.224Z,7.54
2024-01-30T15:29:37.879Z,7.89
2024-01-30T15:33:40.752Z,8.17
2024-01-30T15:37:43.515Z,8.38
2024-01-30T15:41:47.568Z,9.03
2024-01-30T15:45:51.986Z,8.26
2024-01-30T15:49:54.997Z,9.03
2024-01-30T15:54:08.738Z,8.69
2024-01-30T15:58:14.292Z,8.92
2024-01-30T16:02:19.730Z,8.95
2024-01-30T16:06:41.212Z,8.30
2024-01-30T16:10:45.551Z,8.94
2024-01-30T16:14:48.533Z,8.31
2024-01-30T16:18:52.998Z,8.46
2024-01-30T16:22:56.873Z,8.54
2024-01-30T16:26:59.789Z,7.85
2024-01-30T16:31:05.364Z,7.95
2024-01-30T16:35:09.636Z,7.92
2024-01-30T16:39:26.497Z,7.88
2024-01-30T16:43:29.717Z,8.09
2024-01-30T16:47:33.019Z,7.80
2024-01-30T16:52:06.232Z,7.56
2024-01-30T16:56:10.712Z,7.68
2024-01-30T17:00:22.962Z,7.68
2024-01-30T17:04:28.088Z,7.18
2024-01-30T17:08:32.893Z,7.41
2024-01-30T17:12:40.996Z,7.24
2024-01-30T17:16:54.314Z,6.88
2024-01-30T17:20:59.953Z,7.71
2024-01-30T17:25:17.392Z,7.50
2024-01-30T17:29:20.280Z,7.45
2024-01-30T17:33:26.126Z,7.04
2024-01-30T17:37:39.736Z,7.25
2024-01-30T17:41:44.422Z,6.89
2024-01-30T17:46:10.097Z,7.49
2024-01-30T17:50:13.436Z,7.21
2024-01-30T17:54:16.795Z,6.88
2024-01-30T17:58:21.813Z,6.72
2024-01-30T18:02:25.025Z,7.25
2024-01-30T18:06:29.784Z,7.25
2024-01-30T18:10:34.036Z,6.89
2024-01-30T18:14:42.378Z,7.40
2024-01-30T18:18:53.554Z,7.05
2024-01-30T18:22:58.705Z,6.77
2024-01-30T18:27:01.576Z,7.53
2024-01-30T18:31:06.028Z,6.95
2024-01-30T18:35:09.806Z,7.99
2024-01-30T18:39:12.778Z,7.80
2024-01-30T18:43:16.874Z,7.33
2024-01-30T18:47:21.784Z,7.50
2024-01-30T18:51:24.701Z,7.58
2024-01-30T18:55:31.084Z,7.86
2024-01-30T18:59:34.017Z,7.05
2024-01-30T19:03:38.423Z,7.86
2024-01-30T19:07:41.255Z,7.71
2024-01-30T19:11:45.051Z,8.02
2024-01-30T19:15:47.740Z,7.95
2024-01-30T19:19:59.780Z,7.39
2024-01-30T19:24:02.689Z,7.01
2024-01-30T19:28:05.844Z,7.20
2024-01-30T19:32:09.088Z,7.51
2024-01-30T19:36:13.367Z,7.77
2024-01-30T19:40:16.378Z,7.34
2024-01-30T19:44:26.967Z,7.68
2024-01-30T19:48:30.129Z,7.40
2024-01-30T19:52:35.396Z,7.28
2024-01-30T19:56:52.342Z,7.05
2024-01-30T20:00:55.382Z,7.37
2024-01-30T20:05:18.765Z,7.98
2024-01-30T20:09:24.334Z,7.61
2024-01-30T20:13:29.298Z,6.82
2024-01-30T20:17:36.517Z,6.79
2024-01-30T20:21:39.738Z,6.94
2024-01-30T20:25:44.096Z,7.02
2024-01-30T20:29:46.951Z,7.48
2024-01-30T20:38:24.527Z,7.11
2024-01-30T20:42:30.784Z,7.03
2024-01-30T20:46:33.752Z,7.07
2024-01-30T20:50:41.862Z,7.25
2024-01-30T20:54:44.918Z,7.17
2024-01-30T20:58:49.143Z,6.35
2024-01-30T21:02:52.040Z,7.23
2024-01-30T21:07:09.625Z,7.11
2024-01-30T21:11:19.189Z,6.54
2024-01-30T21:15:23.429Z,6.54
2024-01-30T21:19:26.569Z,6.73
2024-01-30T21:23:29.993Z,6.98
2024-01-30T21:27:34.011Z,6.89
2024-01-30T21:31:41.980Z,6.80
2024-01-30T21:36:02.284Z,6.59
2024-01-30T21:40:07.137Z,7.13
2024-01-30T21:44:20.410Z,6.76
2024-01-30T21:48:24.662Z,6.37
2024-01-30T21:52:27.577Z,6.82
2024-01-30T21:56:30.528Z,6.51
2024-01-30T22:00:59.284Z,7.02
2024-01-30T22:05:13.171Z,7.00
2024-01-30T22:09:18.545Z,6.37
2024-01-30T22:13:29.769Z,7.26
2024-01-30T22:17:33.100Z,7.78
2024-01-30T22:21:37.549Z,7.50
2024-01-30T22:25:48.430Z,6.52
2024-01-30T22:30:10.153Z,7.50
2024-01-30T22:34:13.090Z,7.80
2024-01-30T22:38:17.490Z,7.43
2024-01-30T22:42:20.266Z,7.36
2024-01-30T22:46:23.193Z,7.22
2024-01-30T22:50:26.887Z,7.08
2024-01-30T22:54:31.113Z,7.01
2024-01-30T22:58:34.052Z,7.34
2024-01-30T23:02:36.988Z,6.55
2024-01-30T23:06:39.911Z,7.74
2024-01-30T23:10:44.373Z,7.11
2024-01-30T23:19:05.514Z,7.47
2024-01-30T23:23:09.461Z,7.53
2024-01-30T23:27:13.454Z,7.36
2024-01-30T23:31:16.663Z,7.18
2024-01-30T23:35:19.945Z,7.32
2024-01-30T23:39:23.009Z,7.27
2024-01-30T23:43:30.163Z,7.30
2024-01-30T23:47:33.674Z,7.03
2024-01-30T23:51:36.545Z,6.83
2024-01-30T23:55:39.739Z,7.08
